sensor_id;sensor_type;location;lat;lon;timestamp;pressure;altitude;pressure_sealevel;temperature;humidity
13593;BME280;6867;50.998;4.250;2022-11-20T00:02:11;100920.72;;;6.82;71.82
13593;BME280;6867;50.998;4.250;2022-11-20T00:04:38;100908.22;;;6.97;71.37
13593;BME280;6867;50.998;4.250;2022-11-20T00:07:06;100902.88;;;6.97;70.62
13593;BME280;6867;50.998;4.250;2022-11-20T00:09:32;100903.84;;;7.05;70.60
13593;BME280;6867;50.998;4.250;2022-11-20T00:11:59;100898.75;;;7.10;70.08
13593;BME280;6867;50.998;4.250;2022-11-20T00:14:26;100884.03;;;7.14;69.94
13593;BME280;6867;50.998;4.250;2022-11-20T00:16:52;100877.94;;;7.05;69.72
13593;BME280;6867;50.998;4.250;2022-11-20T00:19:19;100885.56;;;6.93;69.91
13593;BME280;6867;50.998;4.250;2022-11-20T00:21:46;100874.53;;;6.96;69.88
13593;BME280;6867;50.998;4.250;2022-11-20T00:24:14;100881.44;;;6.91;69.67
13593;BME280;6867;50.998;4.250;2022-11-20T00:26:40;100887.00;;;6.81;70.12
13593;BME280;6867;50.998;4.250;2022-11-20T00:29:09;100892.19;;;6.97;70.37
13593;BME280;6867;50.998;4.250;2022-11-20T00:31:36;100890.91;;;6.93;70.01
13593;BME280;6867;50.998;4.250;2022-11-20T00:34:02;100903.34;;;6.86;70.51
13593;BME280;6867;50.998;4.250;2022-11-20T00:36:33;100903.03;;;6.81;70.74
13593;BME280;6867;50.998;4.250;2022-11-20T00:39:00;100899.97;;;6.69;70.67
13593;BME280;6867;50.998;4.250;2022-11-20T00:41:29;100903.19;;;6.65;70.77
13593;BME280;6867;50.998;4.250;2022-11-20T00:43:56;100912.38;;;6.62;71.23
13593;BME280;6867;50.998;4.250;2022-11-20T00:46:24;100919.00;;;6.66;71.54
13593;BME280;6867;50.998;4.250;2022-11-20T00:48:51;100916.22;;;6.60;71.79
13593;BME280;6867;50.998;4.250;2022-11-20T00:51:19;100921.97;;;6.48;72.31
13593;BME280;6867;50.998;4.250;2022-11-20T00:53:46;100921.66;;;6.43;72.40
13593;BME280;6867;50.998;4.250;2022-11-20T00:56:15;100937.03;;;6.41;73.18
13593;BME280;6867;50.998;4.250;2022-11-20T00:58:45;100943.38;;;6.40;73.17
13593;BME280;6867;50.998;4.250;2022-11-20T01:01:14;100964.00;;;6.46;73.30
13593;BME280;6867;50.998;4.250;2022-11-20T01:03:45;100944.97;;;6.49;73.22
13593;BME280;6867;50.998;4.250;2022-11-20T01:06:14;100934.00;;;6.44;73.29
13593;BME280;6867;50.998;4.250;2022-11-20T01:08:43;100951.44;;;6.32;73.43
13593;BME280;6867;50.998;4.250;2022-11-20T01:11:11;100964.25;;;6.37;73.68
13593;BME280;6867;50.998;4.250;2022-11-20T01:13:39;100962.09;;;6.32;73.66
13593;BME280;6867;50.998;4.250;2022-11-20T01:16:09;100971.47;;;6.51;74.14
13593;BME280;6867;50.998;4.250;2022-11-20T01:18:37;100955.41;;;6.59;73.57
13593;BME280;6867;50.998;4.250;2022-11-20T01:21:06;100954.88;;;6.64;73.42
13593;BME280;6867;50.998;4.250;2022-11-20T01:23:34;100963.09;;;6.62;73.30
13593;BME280;6867;50.998;4.250;2022-11-20T01:26:02;100947.50;;;6.74;73.09
13593;BME280;6867;50.998;4.250;2022-11-20T01:28:30;100945.50;;;6.68;73.15
13593;BME280;6867;50.998;4.250;2022-11-20T01:30:57;100952.78;;;6.82;73.32
13593;BME280;6867;50.998;4.250;2022-11-20T01:33:25;100920.66;;;6.90;72.39
13593;BME280;6867;50.998;4.250;2022-11-20T01:35:52;100928.50;;;6.69;72.64
13593;BME280;6867;50.998;4.250;2022-11-20T01:38:19;100935.31;;;6.71;72.94
13593;BME280;6867;50.998;4.250;2022-11-20T01:40:53;100932.78;;;6.78;72.45
13593;BME280;6867;50.998;4.250;2022-11-20T01:43:20;100919.91;;;6.82;72.62
13593;BME280;6867;50.998;4.250;2022-11-20T01:46:01;100918.56;;;7.01;72.11
13593;BME280;6867;50.998;4.250;2022-11-20T01:48:35;100916.31;;;6.89;72.20
13593;BME280;6867;50.998;4.250;2022-11-20T01:51:04;100912.28;;;6.93;72.01
13593;BME280;6867;50.998;4.250;2022-11-20T01:53:35;100914.38;;;6.83;72.14
13593;BME280;6867;50.998;4.250;2022-11-20T01:56:04;100907.91;;;6.78;72.02
13593;BME280;6867;50.998;4.250;2022-11-20T01:58:34;100924.75;;;6.78;72.23
13593;BME280;6867;50.998;4.250;2022-11-20T02:01:03;100921.66;;;6.89;72.14
13593;BME280;6867;50.998;4.250;2022-11-20T02:03:32;100916.97;;;6.91;71.75
13593;BME280;6867;50.998;4.250;2022-11-20T02:06:04;100913.41;;;6.99;71.76
13593;BME280;6867;50.998;4.250;2022-11-20T02:08:34;100908.19;;;6.83;71.55
13593;BME280;6867;50.998;4.250;2022-11-20T02:11:02;100932.41;;;6.81;72.09
13593;BME280;6867;50.998;4.250;2022-11-20T02:13:29;100940.00;;;6.69;72.29
13593;BME280;6867;50.998;4.250;2022-11-20T02:16:14;100944.50;;;6.92;72.38
13593;BME280;6867;50.998;4.250;2022-11-20T02:18:44;100950.81;;;6.99;72.51
13593;BME280;6867;50.998;4.250;2022-11-20T02:21:19;100940.03;;;7.07;72.48
13593;BME280;6867;50.998;4.250;2022-11-20T02:24:10;100941.34;;;7.11;72.16
13593;BME280;6867;50.998;4.250;2022-11-20T02:26:42;100927.88;;;7.05;72.15
13593;BME280;6867;50.998;4.250;2022-11-20T02:29:11;100928.63;;;7.13;72.03
13593;BME280;6867;50.998;4.250;2022-11-20T02:31:40;100926.16;;;7.12;72.04
13593;BME280;6867;50.998;4.250;2022-11-20T02:34:08;100924.50;;;7.11;71.62
13593;BME280;6867;50.998;4.250;2022-11-20T02:36:35;100918.41;;;7.17;71.95
13593;BME280;6867;50.998;4.250;2022-11-20T02:39:03;100910.81;;;7.06;71.97
13593;BME280;6867;50.998;4.250;2022-11-20T02:41:33;100915.47;;;7.12;71.88
13593;BME280;6867;50.998;4.250;2022-11-20T02:44:00;100905.25;;;7.15;71.93
13593;BME280;6867;50.998;4.250;2022-11-20T02:46:27;100899.06;;;7.15;71.88
13593;BME280;6867;50.998;4.250;2022-11-20T02:48:54;100892.75;;;6.93;72.09
13593;BME280;6867;50.998;4.250;2022-11-20T02:51:21;100901.50;;;7.02;72.12
13593;BME280;6867;50.998;4.250;2022-11-20T02:53:48;100901.72;;;7.00;72.09
13593;BME280;6867;50.998;4.250;2022-11-20T02:56:15;100896.47;;;6.69;72.49
13593;BME280;6867;50.998;4.250;2022-11-20T02:58:43;100922.84;;;6.87;72.84
13593;BME280;6867;50.998;4.250;2022-11-20T03:01:10;100912.06;;;6.80;72.87
13593;BME280;6867;50.998;4.250;2022-11-20T03:03:36;100898.91;;;6.93;72.30
13593;BME280;6867;50.998;4.250;2022-11-20T03:06:03;100900.28;;;6.89;72.42
13593;BME280;6867;50.998;4.250;2022-11-20T03:08:30;100894.78;;;6.91;72.52
13593;BME280;6867;50.998;4.250;2022-11-20T03:10:57;100892.13;;;6.91;72.58
13593;BME280;6867;50.998;4.250;2022-11-20T03:13:28;100887.59;;;6.91;72.40
13593;BME280;6867;50.998;4.250;2022-11-20T03:15:56;100892.13;;;6.91;72.52
13593;BME280;6867;50.998;4.250;2022-11-20T03:18:22;100879.50;;;6.62;72.70
13593;BME280;6867;50.998;4.250;2022-11-20T03:20:49;100903.03;;;6.81;72.86
13593;BME280;6867;50.998;4.250;2022-11-20T03:23:15;100895.81;;;6.90;72.79
13593;BME280;6867;50.998;4.250;2022-11-20T03:25:42;100883.75;;;6.94;72.69
13593;BME280;6867;50.998;4.250;2022-11-20T03:28:09;100881.50;;;6.83;72.48
13593;BME280;6867;50.998;4.250;2022-11-20T03:30:36;100876.78;;;6.70;72.47
13593;BME280;6867;50.998;4.250;2022-11-20T03:33:04;100867.81;;;6.63;73.08
13593;BME280;6867;50.998;4.250;2022-11-20T03:35:30;100864.88;;;6.58;73.13
13593;BME280;6867;50.998;4.250;2022-11-20T03:37:57;100871.50;;;6.62;73.51
13593;BME280;6867;50.998;4.250;2022-11-20T03:40:24;100867.00;;;6.62;73.61
13593;BME280;6867;50.998;4.250;2022-11-20T03:42:50;100864.31;;;6.62;73.98
13593;BME280;6867;50.998;4.250;2022-11-20T03:45:18;100864.25;;;6.70;73.43
13593;BME280;6867;50.998;4.250;2022-11-20T03:47:45;100875.19;;;6.61;73.94
13593;BME280;6867;50.998;4.250;2022-11-20T03:50:14;100862.94;;;6.66;73.38
13593;BME280;6867;50.998;4.250;2022-11-20T03:52:40;100854.19;;;6.58;73.70
13593;BME280;6867;50.998;4.250;2022-11-20T03:55:08;100858.56;;;6.51;73.99
13593;BME280;6867;50.998;4.250;2022-11-20T03:57:34;100847.00;;;6.58;73.89
13593;BME280;6867;50.998;4.250;2022-11-20T04:00:01;100844.59;;;6.48;73.39
13593;BME280;6867;50.998;4.250;2022-11-20T04:02:28;100859.25;;;6.53;73.98
13593;BME280;6867;50.998;4.250;2022-11-20T04:04:54;100859.47;;;6.43;74.13
13593;BME280;6867;50.998;4.250;2022-11-20T04:07:22;100861.97;;;6.44;74.15
13593;BME280;6867;50.998;4.250;2022-11-20T04:09:49;100852.94;;;6.45;74.34
13593;BME280;6867;50.998;4.250;2022-11-20T04:12:16;100847.81;;;6.44;73.99
13593;BME280;6867;50.998;4.250;2022-11-20T04:14:42;100839.13;;;6.42;73.99
13593;BME280;6867;50.998;4.250;2022-11-20T04:17:09;100833.31;;;6.38;74.01
13593;BME280;6867;50.998;4.250;2022-11-20T04:19:36;100823.53;;;6.31;73.44
13593;BME280;6867;50.998;4.250;2022-11-20T04:22:02;100827.09;;;6.23;73.97
13593;BME280;6867;50.998;4.250;2022-11-20T04:24:30;100832.03;;;6.11;74.14
13593;BME280;6867;50.998;4.250;2022-11-20T04:26:57;100841.31;;;6.15;74.35
13593;BME280;6867;50.998;4.250;2022-11-20T04:29:24;100841.31;;;6.15;74.87
13593;BME280;6867;50.998;4.250;2022-11-20T04:31:50;100844.34;;;6.12;74.44
13593;BME280;6867;50.998;4.250;2022-11-20T04:34:17;100857.00;;;6.10;74.73
13593;BME280;6867;50.998;4.250;2022-11-20T04:36:44;100866.31;;;6.14;75.32
13593;BME280;6867;50.998;4.250;2022-11-20T04:39:14;100874.22;;;6.31;75.15
13593;BME280;6867;50.998;4.250;2022-11-20T04:41:43;100867.47;;;6.43;74.96
13593;BME280;6867;50.998;4.250;2022-11-20T04:44:10;100878.84;;;6.37;75.47
13593;BME280;6867;50.998;4.250;2022-11-20T04:46:39;100876.78;;;6.47;75.66
13593;BME280;6867;50.998;4.250;2022-11-20T04:49:06;100864.19;;;6.56;75.73
13593;BME280;6867;50.998;4.250;2022-11-20T04:51:33;100857.63;;;6.66;75.38
13593;BME280;6867;50.998;4.250;2022-11-20T04:54:01;100869.78;;;6.69;75.71
13593;BME280;6867;50.998;4.250;2022-11-20T04:56:27;100866.56;;;6.73;75.93
13593;BME280;6867;50.998;4.250;2022-11-20T04:59:00;100870.22;;;6.72;75.48
13593;BME280;6867;50.998;4.250;2022-11-20T05:01:26;100869.00;;;6.98;75.54
13593;BME280;6867;50.998;4.250;2022-11-20T05:03:53;100866.59;;;6.88;75.38
13593;BME280;6867;50.998;4.250;2022-11-20T05:06:21;100877.75;;;6.92;75.33
13593;BME280;6867;50.998;4.250;2022-11-20T05:08:48;100870.56;;;6.92;75.08
13593;BME280;6867;50.998;4.250;2022-11-20T05:11:16;100870.41;;;6.94;74.90
13593;BME280;6867;50.998;4.250;2022-11-20T05:13:43;100865.41;;;7.06;74.95
13593;BME280;6867;50.998;4.250;2022-11-20T05:16:12;100861.09;;;7.05;75.00
13593;BME280;6867;50.998;4.250;2022-11-20T05:18:40;100854.94;;;7.04;74.71
13593;BME280;6867;50.998;4.250;2022-11-20T05:21:07;100867.19;;;6.98;74.95
13593;BME280;6867;50.998;4.250;2022-11-20T05:23:35;100850.88;;;7.08;74.94
13593;BME280;6867;50.998;4.250;2022-11-20T05:26:02;100845.34;;;7.10;74.87
13593;BME280;6867;50.998;4.250;2022-11-20T05:28:30;100833.00;;;7.09;74.52
13593;BME280;6867;50.998;4.250;2022-11-20T05:31:04;100811.72;;;7.01;74.42
13593;BME280;6867;50.998;4.250;2022-11-20T05:33:32;100826.38;;;6.90;75.14
13593;BME280;6867;50.998;4.250;2022-11-20T05:35:59;100819.97;;;6.76;75.53
13593;BME280;6867;50.998;4.250;2022-11-20T05:38:25;100823.25;;;6.63;75.80
13593;BME280;6867;50.998;4.250;2022-11-20T05:40:52;100821.69;;;6.54;75.78
13593;BME280;6867;50.998;4.250;2022-11-20T05:43:19;100831.25;;;6.48;76.35
13593;BME280;6867;50.998;4.250;2022-11-20T05:45:52;100836.94;;;6.83;75.61
13593;BME280;6867;50.998;4.250;2022-11-20T05:48:18;100832.63;;;6.82;74.96
13593;BME280;6867;50.998;4.250;2022-11-20T05:50:47;100829.22;;;6.88;75.02
13593;BME280;6867;50.998;4.250;2022-11-20T05:53:13;100823.03;;;6.73;75.38
13593;BME280;6867;50.998;4.250;2022-11-20T05:55:40;100827.63;;;6.79;75.48
13593;BME280;6867;50.998;4.250;2022-11-20T05:58:06;100838.03;;;6.74;75.63
13593;BME280;6867;50.998;4.250;2022-11-20T06:00:33;100823.66;;;6.75;75.53
13593;BME280;6867;50.998;4.250;2022-11-20T06:03:00;100833.72;;;6.73;75.75
13593;BME280;6867;50.998;4.250;2022-11-20T06:05:27;100819.69;;;6.71;75.83
13593;BME280;6867;50.998;4.250;2022-11-20T06:07:56;100828.88;;;6.68;75.88
13593;BME280;6867;50.998;4.250;2022-11-20T06:10:23;100828.72;;;6.70;76.26
13593;BME280;6867;50.998;4.250;2022-11-20T06:12:49;100831.47;;;6.77;76.21
13593;BME280;6867;50.998;4.250;2022-11-20T06:15:16;100836.66;;;6.78;76.25
13593;BME280;6867;50.998;4.250;2022-11-20T06:17:43;100819.75;;;6.86;76.08
13593;BME280;6867;50.998;4.250;2022-11-20T06:20:10;100835.56;;;6.87;76.19
13593;BME280;6867;50.998;4.250;2022-11-20T06:22:36;100827.00;;;6.92;76.47
13593;BME280;6867;50.998;4.250;2022-11-20T06:25:05;100831.25;;;6.86;76.30
13593;BME280;6867;50.998;4.250;2022-11-20T06:27:32;100828.50;;;6.94;76.90
13593;BME280;6867;50.998;4.250;2022-11-20T06:29:58;100827.66;;;7.09;76.29
13593;BME280;6867;50.998;4.250;2022-11-20T06:32:25;100824.34;;;7.21;75.63
13593;BME280;6867;50.998;4.250;2022-11-20T06:34:51;100813.00;;;7.34;75.32
13593;BME280;6867;50.998;4.250;2022-11-20T06:37:18;100815.16;;;7.24;75.63
13593;BME280;6867;50.998;4.250;2022-11-20T06:39:45;100820.19;;;7.34;75.48
13593;BME280;6867;50.998;4.250;2022-11-20T06:42:13;100827.50;;;7.25;76.56
13593;BME280;6867;50.998;4.250;2022-11-20T06:44:39;100829.88;;;7.49;75.96
13593;BME280;6867;50.998;4.250;2022-11-20T06:47:06;100821.03;;;7.49;75.61
13593;BME280;6867;50.998;4.250;2022-11-20T06:49:33;100809.13;;;7.52;75.35
13593;BME280;6867;50.998;4.250;2022-11-20T06:52:02;100810.97;;;7.66;75.15
13593;BME280;6867;50.998;4.250;2022-11-20T06:54:29;100797.97;;;7.63;75.48
13593;BME280;6867;50.998;4.250;2022-11-20T06:56:55;100799.50;;;7.72;74.87
13593;BME280;6867;50.998;4.250;2022-11-20T06:59:23;100814.00;;;7.63;75.51
13593;BME280;6867;50.998;4.250;2022-11-20T07:01:50;100816.41;;;7.58;75.87
13593;BME280;6867;50.998;4.250;2022-11-20T07:04:17;100821.09;;;7.70;75.51
13593;BME280;6867;50.998;4.250;2022-11-20T07:06:43;100830.22;;;7.61;76.42
13593;BME280;6867;50.998;4.250;2022-11-20T07:09:10;100835.91;;;7.73;76.34
13593;BME280;6867;50.998;4.250;2022-11-20T07:11:37;100824.22;;;7.74;76.09
13593;BME280;6867;50.998;4.250;2022-11-20T07:14:04;100828.19;;;7.78;75.96
13593;BME280;6867;50.998;4.250;2022-11-20T07:16:31;100824.84;;;7.76;75.99
13593;BME280;6867;50.998;4.250;2022-11-20T07:18:58;100811.00;;;7.87;76.26
13593;BME280;6867;50.998;4.250;2022-11-20T07:21:25;100810.78;;;7.89;76.42
13593;BME280;6867;50.998;4.250;2022-11-20T07:23:51;100814.69;;;7.86;76.54
13593;BME280;6867;50.998;4.250;2022-11-20T07:26:18;100819.19;;;7.86;76.38
13593;BME280;6867;50.998;4.250;2022-11-20T07:28:45;100820.91;;;7.93;75.96
13593;BME280;6867;50.998;4.250;2022-11-20T07:31:12;100828.69;;;7.88;76.28
13593;BME280;6867;50.998;4.250;2022-11-20T07:33:40;100842.91;;;8.10;77.09
13593;BME280;6867;50.998;4.250;2022-11-20T07:36:07;100821.59;;;8.17;76.11
13593;BME280;6867;50.998;4.250;2022-11-20T07:38:34;100818.72;;;8.18;76.02
13593;BME280;6867;50.998;4.250;2022-11-20T07:41:01;100809.03;;;8.17;76.11
13593;BME280;6867;50.998;4.250;2022-11-20T07:43:27;100803.88;;;8.16;75.66
13593;BME280;6867;50.998;4.250;2022-11-20T07:45:55;100802.16;;;8.08;76.59
13593;BME280;6867;50.998;4.250;2022-11-20T07:48:22;100801.25;;;8.01;76.81
13593;BME280;6867;50.998;4.250;2022-11-20T07:50:53;100802.53;;;8.05;76.49
13593;BME280;6867;50.998;4.250;2022-11-20T07:53:20;100813.81;;;8.22;76.52
13593;BME280;6867;50.998;4.250;2022-11-20T07:55:47;100801.31;;;7.86;77.04
13593;BME280;6867;50.998;4.250;2022-11-20T07:58:14;100823.00;;;8.13;77.29
13593;BME280;6867;50.998;4.250;2022-11-20T08:00:40;100805.66;;;8.09;76.87
13593;BME280;6867;50.998;4.250;2022-11-20T08:03:07;100805.66;;;8.30;76.52
13593;BME280;6867;50.998;4.250;2022-11-20T08:05:34;100801.09;;;8.45;76.05
13593;BME280;6867;50.998;4.250;2022-11-20T08:08:02;100798.19;;;8.40;76.01
13593;BME280;6867;50.998;4.250;2022-11-20T08:10:29;100799.72;;;8.56;76.70
13593;BME280;6867;50.998;4.250;2022-11-20T08:12:56;100802.53;;;8.69;76.55
13593;BME280;6867;50.998;4.250;2022-11-20T08:15:40;100787.16;;;8.57;75.81
13593;BME280;6867;50.998;4.250;2022-11-20T08:18:08;100788.97;;;8.78;75.68
13593;BME280;6867;50.998;4.250;2022-11-20T08:20:36;100790.34;;;8.67;75.97
13593;BME280;6867;50.998;4.250;2022-11-20T08:23:05;100789.41;;;8.81;76.30
13593;BME280;6867;50.998;4.250;2022-11-20T08:25:33;100782.06;;;8.90;76.21
13593;BME280;6867;50.998;4.250;2022-11-20T08:28:00;100765.28;;;9.09;75.19
13593;BME280;6867;50.998;4.250;2022-11-20T08:30:28;100767.72;;;9.04;75.37
13593;BME280;6867;50.998;4.250;2022-11-20T08:32:54;100771.81;;;8.65;75.25
13593;BME280;6867;50.998;4.250;2022-11-20T08:35:26;100782.06;;;8.90;75.42
13593;BME280;6867;50.998;4.250;2022-11-20T08:37:53;100765.16;;;8.89;75.60
13593;BME280;6867;50.998;4.250;2022-11-20T08:40:21;100769.38;;;9.05;75.50
13593;BME280;6867;50.998;4.250;2022-11-20T08:42:49;100761.34;;;9.05;74.62
13593;BME280;6867;50.998;4.250;2022-11-20T08:45:16;100764.22;;;9.04;76.35
13593;BME280;6867;50.998;4.250;2022-11-20T08:47:44;100761.78;;;9.15;74.81
13593;BME280;6867;50.998;4.250;2022-11-20T08:50:13;100768.22;;;9.21;75.94
13593;BME280;6867;50.998;4.250;2022-11-20T08:52:40;100753.19;;;9.20;75.68
13593;BME280;6867;50.998;4.250;2022-11-20T08:55:08;100762.53;;;9.37;75.23
13593;BME280;6867;50.998;4.250;2022-11-20T08:57:37;100746.19;;;9.26;75.25
13593;BME280;6867;50.998;4.250;2022-11-20T09:00:07;100750.75;;;9.32;74.97
13593;BME280;6867;50.998;4.250;2022-11-20T09:02:34;100760.25;;;9.34;75.72
13593;BME280;6867;50.998;4.250;2022-11-20T09:05:00;100758.16;;;9.30;75.64
13593;BME280;6867;50.998;4.250;2022-11-20T09:07:28;100751.28;;;9.68;74.83
13593;BME280;6867;50.998;4.250;2022-11-20T09:09:55;100736.00;;;9.62;74.85
13593;BME280;6867;50.998;4.250;2022-11-20T09:12:22;100748.56;;;9.55;74.83
13593;BME280;6867;50.998;4.250;2022-11-20T09:14:50;100734.81;;;9.78;74.68
13593;BME280;6867;50.998;4.250;2022-11-20T09:17:17;100730.28;;;9.85;74.34
13593;BME280;6867;50.998;4.250;2022-11-20T09:19:43;100727.59;;;9.98;74.70
13593;BME280;6867;50.998;4.250;2022-11-20T09:22:10;100728.66;;;10.04;74.12
13593;BME280;6867;50.998;4.250;2022-11-20T09:24:37;100729.75;;;10.30;73.71
13593;BME280;6867;50.998;4.250;2022-11-20T09:27:04;100716.94;;;10.25;74.35
13593;BME280;6867;50.998;4.250;2022-11-20T09:29:31;100705.97;;;10.27;73.31
13593;BME280;6867;50.998;4.250;2022-11-20T09:31:59;100727.66;;;10.38;74.02
13593;BME280;6867;50.998;4.250;2022-11-20T09:34:25;100714.44;;;10.50;73.80
13593;BME280;6867;50.998;4.250;2022-11-20T09:36:52;100694.38;;;10.53;72.99
13593;BME280;6867;50.998;4.250;2022-11-20T09:39:19;100693.78;;;10.44;73.42
13593;BME280;6867;50.998;4.250;2022-11-20T09:44:49;100681.78;;;10.66;73.49
13593;BME280;6867;50.998;4.250;2022-11-20T09:47:27;100680.06;;;10.85;72.82
13593;BME280;6867;50.998;4.250;2022-11-20T09:50:10;100689.41;;;10.63;73.44
13593;BME280;6867;50.998;4.250;2022-11-20T09:52:45;100679.88;;;10.73;72.97
13593;BME280;6867;50.998;4.250;2022-11-20T09:55:14;100674.94;;;10.70;73.23
13593;BME280;6867;50.998;4.250;2022-11-20T09:57:44;100668.34;;;10.66;73.41
13593;BME280;6867;50.998;4.250;2022-11-20T10:00:14;100674.53;;;10.67;73.81
13593;BME280;6867;50.998;4.250;2022-11-20T10:02:47;100662.69;;;10.81;73.36
13593;BME280;6867;50.998;4.250;2022-11-20T10:05:18;100658.38;;;10.87;73.19
13593;BME280;6867;50.998;4.250;2022-11-20T10:07:48;100658.75;;;10.90;72.81
13593;BME280;6867;50.998;4.250;2022-11-20T10:10:29;100665.09;;;11.03;73.17
13593;BME280;6867;50.998;4.250;2022-11-20T10:13:09;100650.38;;;11.12;72.90
13593;BME280;6867;50.998;4.250;2022-11-20T10:15:47;100638.09;;;11.29;72.80
13593;BME280;6867;50.998;4.250;2022-11-20T10:18:29;100630.09;;;11.54;72.37
13593;BME280;6867;50.998;4.250;2022-11-20T10:21:08;100627.03;;;11.44;72.65
13593;BME280;6867;50.998;4.250;2022-11-20T10:23:59;100604.75;;;11.62;71.63
13593;BME280;6867;50.998;4.250;2022-11-20T10:26:35;100608.84;;;11.71;71.61
13593;BME280;6867;50.998;4.250;2022-11-20T10:29:11;100595.09;;;11.86;70.90
13593;BME280;6867;50.998;4.250;2022-11-20T10:31:40;100597.13;;;11.90;71.21
13593;BME280;6867;50.998;4.250;2022-11-20T10:34:16;100583.59;;;11.72;71.19
13593;BME280;6867;50.998;4.250;2022-11-20T10:36:49;100572.75;;;11.85;70.85
13593;BME280;6867;50.998;4.250;2022-11-20T10:39:22;100557.81;;;12.08;70.30
13593;BME280;6867;50.998;4.250;2022-11-20T10:41:52;100548.56;;;12.59;69.14
13593;BME280;6867;50.998;4.250;2022-11-20T10:44:21;100538.69;;;12.83;68.55
13593;BME280;6867;50.998;4.250;2022-11-20T10:47:04;100529.78;;;12.82;67.70
13593;BME280;6867;50.998;4.250;2022-11-20T10:49:33;100500.63;;;12.91;66.86
13593;BME280;6867;50.998;4.250;2022-11-20T10:52:05;100497.56;;;12.87;66.95
13593;BME280;6867;50.998;4.250;2022-11-20T10:54:42;100500.00;;;13.07;66.62
13593;BME280;6867;50.998;4.250;2022-11-20T10:57:25;100485.66;;;12.65;66.65
13593;BME280;6867;50.998;4.250;2022-11-20T11:00:02;100485.53;;;12.60;66.54
13593;BME280;6867;50.998;4.250;2022-11-20T11:02:33;100474.75;;;12.60;66.41
13593;BME280;6867;50.998;4.250;2022-11-20T11:05:10;100479.28;;;12.48;66.87
13593;BME280;6867;50.998;4.250;2022-11-20T11:07:39;100462.03;;;12.67;66.38
13593;BME280;6867;50.998;4.250;2022-11-20T11:10:14;100477.81;;;12.63;66.68
13593;BME280;6867;50.998;4.250;2022-11-20T11:12:43;100469.38;;;12.60;66.83
13593;BME280;6867;50.998;4.250;2022-11-20T11:15:14;100460.78;;;12.51;66.33
13593;BME280;6867;50.998;4.250;2022-11-20T11:17:46;100458.84;;;12.58;66.66
13593;BME280;6867;50.998;4.250;2022-11-20T11:20:19;100461.88;;;12.62;66.36
13593;BME280;6867;50.998;4.250;2022-11-20T11:22:47;100432.44;;;12.90;65.83
13593;BME280;6867;50.998;4.250;2022-11-20T11:25:26;100404.41;;;12.91;64.88
13593;BME280;6867;50.998;4.250;2022-11-20T11:27:55;100405.00;;;12.93;65.19
13593;BME280;6867;50.998;4.250;2022-11-20T11:30:23;100401.25;;;12.94;64.85
13593;BME280;6867;50.998;4.250;2022-11-20T11:32:50;100392.38;;;13.17;64.40
13593;BME280;6867;50.998;4.250;2022-11-20T11:35:24;100374.00;;;13.26;63.84
13593;BME280;6867;50.998;4.250;2022-11-20T11:37:52;100344.53;;;13.48;63.13
13593;BME280;6867;50.998;4.250;2022-11-20T11:40:21;100337.88;;;13.51;63.24
13593;BME280;6867;50.998;4.250;2022-11-20T11:42:53;100312.53;;;13.40;62.87
13593;BME280;6867;50.998;4.250;2022-11-20T11:45:21;100310.50;;;13.59;62.49
13593;BME280;6867;50.998;4.250;2022-11-20T11:47:47;100312.25;;;13.53;62.39
13593;BME280;6867;50.998;4.250;2022-11-20T11:50:20;100322.13;;;13.48;62.86
13593;BME280;6867;50.998;4.250;2022-11-20T11:52:55;100315.84;;;13.30;62.93
13593;BME280;6867;50.998;4.250;2022-11-20T11:55:29;100345.84;;;13.22;63.21
13593;BME280;6867;50.998;4.250;2022-11-20T11:58:06;100353.19;;;12.91;63.91
13593;BME280;6867;50.998;4.250;2022-11-20T12:00:37;100368.66;;;12.73;64.68
13593;BME280;6867;50.998;4.250;2022-11-20T12:03:14;100390.09;;;12.67;65.54
13593;BME280;6867;50.998;4.250;2022-11-20T12:05:44;100386.41;;;12.62;65.36
13593;BME280;6867;50.998;4.250;2022-11-20T12:08:18;100386.38;;;12.38;65.88
13593;BME280;6867;50.998;4.250;2022-11-20T12:10:50;100384.75;;;12.19;66.16
13593;BME280;6867;50.998;4.250;2022-11-20T12:13:32;100392.59;;;12.20;66.89
13593;BME280;6867;50.998;4.250;2022-11-20T12:16:03;100412.59;;;11.76;68.42
13593;BME280;6867;50.998;4.250;2022-11-20T12:18:30;100428.97;;;11.75;68.89
13593;BME280;6867;50.998;4.250;2022-11-20T12:21:05;100425.06;;;11.70;69.07
13593;BME280;6867;50.998;4.250;2022-11-20T12:23:45;100429.22;;;11.48;70.13
13593;BME280;6867;50.998;4.250;2022-11-20T12:26:22;100428.69;;;11.58;70.02
13593;BME280;6867;50.998;4.250;2022-11-20T12:28:58;100435.25;;;11.43;71.09
13593;BME280;6867;50.998;4.250;2022-11-20T12:31:39;100423.06;;;11.41;71.58
13593;BME280;6867;50.998;4.250;2022-11-20T12:34:18;100407.03;;;11.53;70.92
13593;BME280;6867;50.998;4.250;2022-11-20T12:36:54;100419.25;;;11.30;71.92
13593;BME280;6867;50.998;4.250;2022-11-20T12:39:34;100424.75;;;11.17;72.95
13593;BME280;6867;50.998;4.250;2022-11-20T12:42:28;100414.81;;;11.17;73.42
13593;BME280;6867;50.998;4.250;2022-11-20T12:45:31;100420.25;;;11.11;74.50
13593;BME280;6867;50.998;4.250;2022-11-20T12:48:18;100406.84;;;11.29;74.32
13593;BME280;6867;50.998;4.250;2022-11-20T12:50:54;100399.38;;;11.31;74.03
13593;BME280;6867;50.998;4.250;2022-11-20T12:53:30;100402.75;;;11.02;75.23
13593;BME280;6867;50.998;4.250;2022-11-20T12:56:08;100383.38;;;11.18;74.85
13593;BME280;6867;50.998;4.250;2022-11-20T12:58:48;100369.44;;;11.03;75.30
13593;BME280;6867;50.998;4.250;2022-11-20T13:01:24;100381.25;;;11.02;76.46
13593;BME280;6867;50.998;4.250;2022-11-20T13:04:16;100372.56;;;11.25;76.36
13593;BME280;6867;50.998;4.250;2022-11-20T13:06:46;100364.41;;;11.13;76.06
13593;BME280;6867;50.998;4.250;2022-11-20T13:09:15;100357.84;;;11.27;76.30
13593;BME280;6867;50.998;4.250;2022-11-20T13:11:49;100352.97;;;11.17;76.60
13593;BME280;6867;50.998;4.250;2022-11-20T13:14:29;100357.28;;;10.75;76.97
13593;BME280;6867;50.998;4.250;2022-11-20T13:17:02;100353.13;;;11.22;76.95
13593;BME280;6867;50.998;4.250;2022-11-20T13:19:31;100332.91;;;11.38;76.60
13593;BME280;6867;50.998;4.250;2022-11-20T13:21:58;100319.47;;;11.38;76.27
13593;BME280;6867;50.998;4.250;2022-11-20T13:24:26;100326.03;;;11.24;77.13